Time;durP1;ratioP1;P1;durP2;ratioP2;P2;SDS_P1;SDS_P2;PMS_P1;PMS_P2;Temp;Humidity;BMP_temperature;BMP_pressure;BME280_temperature;BME280_humidity;BME280_pressure;Samples;Min_cycle;Max_cycle;Signal;HPM_P1;HPM_P2
2021/09/11 00:02:09;;;;;;;7.90;7.10;;;;;;;20.03;73.31;100508.19;4992520;28;20449;-78
2021/09/11 00:04:34;;;;;;;7.70;7.10;;;;;;;20.02;73.45;100510.09;4994337;28;20779;-79
2021/09/11 00:07:00;;;;;;;7.57;6.90;;;;;;;20.00;73.31;100508.78;4991883;28;20422;-78
2021/09/11 00:09:25;;;;;;;7.40;6.90;;;;;;;19.97;73.30;100501.16;4992246;28;20406;-78
2021/09/11 00:11:50;;;;;;;7.07;6.45;;;;;;;19.95;73.37;100506.16;4995626;28;20464;-79
2021/09/11 00:14:16;;;;;;;6.80;6.20;;;;;;;19.89;73.32;100508.19;4992165;28;20414;-78
2021/09/11 00:16:41;;;;;;;6.03;5.63;;;;;;;19.85;73.36;100500.84;4992329;28;20415;-79
2021/09/11 00:19:07;;;;;;;6.35;5.85;;;;;;;19.84;73.41;100497.28;5000315;28;20465;-78
2021/09/11 00:21:32;;;;;;;5.60;5.20;;;;;;;19.87;73.02;100510.44;4992140;28;20410;-78
2021/09/11 00:23:57;;;;;;;5.40;5.10;;;;;;;19.84;73.14;100505.53;4992751;28;20829;-79
2021/09/11 00:26:23;;;;;;;5.28;4.88;;;;;;;19.78;73.02;100505.94;4992557;28;20854;-78
2021/09/11 00:28:48;;;;;;;4.87;4.47;;;;;;;19.76;73.07;100497.97;4998416;28;20445;-79
2021/09/11 00:31:13;;;;;;;4.73;4.40;;;;;;;19.77;72.86;100507.88;4991087;28;20406;-78
2021/09/11 00:33:39;;;;;;;5.30;4.80;;;;;;;19.85;72.79;100503.59;5000986;28;20767;-79
2021/09/11 00:36:04;;;;;;;5.07;4.57;;;;;;;19.82;72.95;100504.22;4998541;28;20781;-79
2021/09/11 00:38:29;;;;;;;4.97;4.67;;;;;;;19.75;72.90;100503.81;5002503;28;20402;-79
2021/09/11 00:40:55;;;;;;;4.83;4.40;;;;;;;19.71;73.27;100509.09;4992440;28;20471;-79
2021/09/11 00:43:24;;;;;;;4.70;4.40;;;;;;;19.72;73.58;100509.91;4991903;28;20398;-78
2021/09/11 00:45:50;;;;;;;4.75;4.45;;;;;;;19.64;73.98;100512.25;4991829;28;20904;-79
2021/09/11 00:48:16;;;;;;;4.88;4.57;;;;;;;19.69;74.17;100509.38;4999910;28;20415;-79
2021/09/11 00:50:41;;;;;;;5.20;4.80;;;;;;;19.71;74.09;100508.28;5007428;28;20418;-79
2021/09/11 00:53:09;;;;;;;5.07;4.68;;;;;;;19.64;74.57;100515.00;4991209;28;20406;-79
2021/09/11 00:55:35;;;;;;;5.40;4.97;;;;;;;19.66;74.29;100510.00;4991870;28;20436;-79
2021/09/11 00:58:01;;;;;;;5.10;4.78;;;;;;;19.67;74.41;100513.56;4991775;28;20409;-79
2021/09/11 01:00:26;;;;;;;5.37;4.97;;;;;;;19.67;74.51;100513.56;5023279;28;20393;-79
2021/09/11 01:02:51;;;;;;;5.07;4.60;;;;;;;19.71;74.50;100511.84;4994799;28;20409;-79
2021/09/11 01:05:17;;;;;;;5.50;5.20;;;;;;;19.67;74.87;100506.13;5000582;28;20464;-79
2021/09/11 01:07:45;;;;;;;5.33;5.03;;;;;;;19.55;75.81;100522.31;4995149;28;20472;-79
2021/09/11 01:10:10;;;;;;;5.70;5.32;;;;;;;19.55;75.96;100519.56;5004385;28;20450;-78
2021/09/11 01:12:38;;;;;;;6.07;5.53;;;;;;;19.56;75.94;100517.63;4995282;28;20493;-79
2021/09/11 01:15:09;;;;;;;5.50;5.13;;;;;;;19.46;76.35;100524.09;4995026;28;20484;-79
2021/09/11 01:17:35;;;;;;;5.93;5.53;;;;;;;19.48;76.83;100526.56;4994959;28;20428;-79
2021/09/11 01:20:01;;;;;;;5.85;5.55;;;;;;;19.41;77.00;100517.91;4997793;28;20870;-79
2021/09/11 01:22:26;;;;;;;5.90;5.60;;;;;;;19.43;77.15;100515.69;5001376;28;20418;-79
2021/09/11 01:25:06;;;;;;;6.10;5.60;;;;;;;19.43;77.40;100518.44;4995246;28;20488;-79
2021/09/11 01:27:31;;;;;;;6.50;6.00;;;;;;;19.43;77.40;100521.97;5010852;28;20405;-79
2021/09/11 01:30:04;;;;;;;10.33;5.77;;;;;;;19.45;77.52;100519.75;4993835;28;20399;-79
2021/09/11 01:32:31;;;;;;;6.28;5.90;;;;;;;19.48;77.36;100523.81;4994503;28;20901;-78
2021/09/11 01:34:56;;;;;;;6.38;5.88;;;;;;;19.50;77.68;100521.56;4994845;28;20438;-79
2021/09/11 01:37:22;;;;;;;6.90;6.40;;;;;;;19.49;77.64;100522.72;5000547;28;20906;-78
2021/09/11 01:39:49;;;;;;;6.77;6.20;;;;;;;19.46;77.69;100523.31;4995349;28;20746;-79
2021/09/11 01:42:18;;;;;;;6.35;5.93;;;;;;;19.47;77.86;100520.25;4995292;28;20520;-79
2021/09/11 01:44:48;;;;;;;7.13;6.43;;;;;;;19.52;77.73;100522.94;4994521;28;20406;-79
2021/09/11 01:47:14;;;;;;;6.75;6.32;;;;;;;19.52;77.82;100522.94;5001397;28;20409;-79
2021/09/11 01:49:39;;;;;;;7.17;6.57;;;;;;;19.48;77.81;100524.63;5001970;28;20418;-78
2021/09/11 01:52:05;;;;;;;7.15;6.45;;;;;;;19.53;77.90;100518.22;4994487;28;20398;-79
2021/09/11 01:54:30;;;;;;;9.10;8.20;;;;;;;19.50;77.87;100518.81;5009743;28;20476;-78
2021/09/11 01:56:55;;;;;;;8.60;7.77;;;;;;;19.47;77.73;100517.50;5007598;28;20416;-79
2021/09/11 01:59:21;;;;;;;8.03;7.40;;;;;;;19.42;77.79;100512.13;5010930;28;20399;-79
2021/09/11 02:01:46;;;;;;;9.07;8.27;;;;;;;19.41;78.34;100512.41;4993201;28;20406;-79
2021/09/11 02:04:11;;;;;;;8.80;8.10;;;;;;;19.46;78.01;100518.63;4999834;28;20425;-79
2021/09/11 02:06:36;;;;;;;7.28;6.78;;;;;;;19.52;78.06;100516.59;5002550;28;20409;-79
2021/09/11 02:09:02;;;;;;;7.97;7.27;;;;;;;19.53;77.91;100523.72;4996813;28;20902;-79
2021/09/11 02:11:27;;;;;;;6.80;6.40;;;;;;;19.53;77.97;100516.28;4993275;28;20413;-79
2021/09/11 02:13:52;;;;;;;22.73;6.80;;;;;;;19.58;77.47;100512.66;5002280;28;20942;-79
2021/09/11 02:16:17;;;;;;;7.17;6.47;;;;;;;19.60;77.30;100513.97;5000256;28;20424;-79
2021/09/11 02:18:43;;;;;;;6.93;6.43;;;;;;;19.60;77.50;100515.88;5012767;28;20406;-79
2021/09/11 02:21:08;;;;;;;7.10;6.53;;;;;;;19.59;77.32;100514.28;4994099;28;20806;-80
2021/09/11 02:23:33;;;;;;;7.30;6.80;;;;;;;19.59;77.92;100517.03;5001603;28;20396;-79
2021/09/11 02:25:58;;;;;;;7.27;6.67;;;;;;;19.60;77.73;100510.41;5003077;28;20417;-79
2021/09/11 02:28:24;;;;;;;6.75;6.25;;;;;;;19.59;77.70;100515.06;4994175;28;20439;-79
2021/09/11 02:30:49;;;;;;;7.30;6.70;;;;;;;19.55;77.72;100519.56;4996660;28;20395;-79
2021/09/11 02:33:14;;;;;;;7.50;6.90;;;;;;;19.55;77.66;100514.06;5008298;28;20424;-79
2021/09/11 02:35:39;;;;;;;7.17;6.47;;;;;;;19.53;77.75;100516.28;5003521;28;20422;-79
2021/09/11 02:38:05;;;;;;;6.10;5.80;;;;;;;19.51;77.57;100515.78;4993451;28;20770;-78
2021/09/11 02:40:30;;;;;;;7.77;7.17;;;;;;;19.45;77.83;100522.50;5009634;28;20404;-79
2021/09/11 02:42:55;;;;;;;7.70;6.80;;;;;;;19.45;77.94;100517.00;4993838;28;20410;-79
2021/09/11 02:45:20;;;;;;;7.00;6.47;;;;;;;19.39;78.12;100523.69;5019765;28;20539;-79
2021/09/11 02:47:46;;;;;;;11.73;10.63;;;;;;;19.39;78.52;100514.63;4997055;28;20766;-79
2021/09/11 02:50:11;;;;;;;10.10;9.10;;;;;;;19.40;78.25;100516.22;4993614;28;20498;-79
2021/09/11 02:52:37;;;;;;;9.50;8.70;;;;;;;19.41;78.18;100512.41;4997304;28;20393;-78
2021/09/11 02:55:02;;;;;;;8.73;7.60;;;;;;;19.43;78.23;100512.94;5003761;28;20430;-79
2021/09/11 02:57:27;;;;;;;7.70;7.10;;;;;;;19.41;78.41;100515.16;4999149;28;20407;-79
2021/09/11 02:59:53;;;;;;;8.30;7.30;;;;;;;19.43;78.10;100512.94;5008366;28;20405;-79
2021/09/11 03:02:18;;;;;;;7.53;6.80;;;;;;;19.46;77.89;100507.63;5000514;28;20402;-79
2021/09/11 03:04:43;;;;;;;7.97;7.33;;;;;;;19.49;77.94;100515.28;4999113;28;20401;-79
2021/09/11 03:07:09;;;;;;;8.30;7.10;;;;;;;19.50;77.79;100511.41;5010527;28;20459;-79
2021/09/11 03:09:34;;;;;;;7.93;7.07;;;;;;;19.48;77.81;100513.66;4999172;28;20762;-79
2021/09/11 03:12:00;;;;;;;7.70;7.20;;;;;;;19.46;77.98;100504.06;5008757;28;20409;-79
2021/09/11 03:14:25;;;;;;;8.27;7.57;;;;;;;19.39;78.29;100512.69;4992973;28;20877;-79
2021/09/11 03:16:50;;;;;;;9.17;8.27;;;;;;;19.32;78.44;100508.69;5006460;28;20784;-79
2021/09/11 03:19:15;;;;;;;10.17;9.17;;;;;;;19.25;78.60;100508.25;5000144;28;20436;-79
2021/09/11 03:21:41;;;;;;;77.73;11.17;;;;;;;19.22;78.76;100509.69;5008428;28;20411;-79
2021/09/11 03:24:06;;;;;;;135.20;15.17;;;;;;;19.21;79.00;100507.22;4991821;28;20437;-79
2021/09/11 03:26:31;;;;;;;8.80;8.00;;;;;;;19.11;79.14;100509.03;4997798;28;20495;-79
2021/09/11 03:28:57;;;;;;;9.93;9.13;;;;;;;19.10;79.35;100512.06;5000640;28;20399;-79
2021/09/11 03:31:22;;;;;;;12.70;9.00;;;;;;;19.13;79.39;100514.25;4994058;28;20386;-79
2021/09/11 03:33:47;;;;;;;9.97;9.07;;;;;;;19.19;79.42;100510.28;4993591;28;20407;-78
2021/09/11 03:36:12;;;;;;;10.07;9.10;;;;;;;19.22;79.16;100508.88;4999545;28;20476;-79
2021/09/11 03:38:38;;;;;;;9.77;8.77;;;;;;;19.28;78.92;100519.47;5008632;28;20415;-79
2021/09/11 03:41:03;;;;;;;10.13;9.10;;;;;;;19.32;78.96;100511.44;5016636;28;20401;-79
2021/09/11 03:43:28;;;;;;;9.63;8.67;;;;;;;19.29;78.91;100509.28;4992680;28;20482;-79
2021/09/11 03:45:54;;;;;;;9.60;8.70;;;;;;;19.31;78.66;100507.06;4992539;28;20486;-79
2021/09/11 03:48:19;;;;;;;8.47;7.87;;;;;;;19.37;78.56;100508.59;5033047;28;20392;-79
2021/09/11 03:50:44;;;;;;;10.40;9.50;;;;;;;19.37;78.57;100500.34;4999378;28;20481;-79
2021/09/11 03:53:09;;;;;;;16.00;14.43;;;;;;;19.33;78.75;100505.63;5002093;28;20404;-79
2021/09/11 03:55:35;;;;;;;11.95;10.90;;;;;;;19.30;78.70;100502.69;4992456;28;20900;-79
2021/09/11 03:58:00;;;;;;;9.70;9.00;;;;;;;19.28;78.89;100510.41;4992218;28;20917;-79
2021/09/11 04:00:25;;;;;;;10.80;9.63;;;;;;;19.27;79.05;100511.50;5001869;28;20385;-79
2021/09/11 04:02:51;;;;;;;10.10;9.17;;;;;;;19.26;79.08;100507.16;4992143;28;20892;-79
2021/09/11 04:05:16;;;;;;;9.37;8.60;;;;;;;19.26;78.99;100513.47;4992248;28;20766;-79
2021/09/11 04:07:41;;;;;;;9.50;8.73;;;;;;;19.25;79.03;100506.34;4997569;28;20403;-78
2021/09/11 04:10:07;;;;;;;9.90;9.10;;;;;;;19.27;78.95;100506.84;5001606;28;20473;-79
2021/09/11 04:12:32;;;;;;;10.02;8.95;;;;;;;19.26;79.05;100501.66;4999123;28;20912;-78
2021/09/11 04:14:57;;;;;;;10.37;9.17;;;;;;;19.25;79.07;100506.34;4992089;28;20475;-79
2021/09/11 04:17:22;;;;;;;10.90;9.53;;;;;;;19.26;79.12;100518.13;5002813;28;20400;-78
2021/09/11 04:19:48;;;;;;;10.63;8.50;;;;;;;19.21;79.24;100515.47;5003701;28;20878;-79
2021/09/11 04:22:13;;;;;;;9.97;8.93;;;;;;;19.13;79.45;100515.03;4997229;28;20406;-79
2021/09/11 04:24:38;;;;;;;9.73;8.83;;;;;;;19.06;79.51;100511.88;5007500;28;20509;-79
2021/09/11 04:27:04;;;;;;;10.37;8.90;;;;;;;19.05;79.75;100514.91;4994809;28;20410;-79
2021/09/11 04:29:29;;;;;;;9.65;8.82;;;;;;;19.05;79.80;100510.22;5007999;28;20871;-79
2021/09/11 04:31:54;;;;;;;8.67;7.77;;;;;;;19.09;79.40;100510.44;5000390;28;20418;-79
2021/09/11 04:34:20;;;;;;;8.93;8.13;;;;;;;19.14;78.90;100515.84;5008176;28;20420;-79
2021/09/11 04:36:45;;;;;;;8.50;7.60;;;;;;;19.17;78.88;100512.50;5004672;28;20411;-79
2021/09/11 04:39:10;;;;;;;9.15;8.27;;;;;;;19.18;79.22;100512.22;5008185;28;20588;-79
2021/09/11 04:41:35;;;;;;;12.67;8.67;;;;;;;19.18;79.08;100514.13;5012343;28;20804;-79
2021/09/11 04:44:01;;;;;;;10.97;8.60;;;;;;;19.21;79.28;100513.53;5007773;28;20408;-79
2021/09/11 04:46:26;;;;;;;9.40;8.50;;;;;;;19.20;79.08;100517.38;5011841;28;20463;-79
2021/09/11 04:48:51;;;;;;;9.35;8.65;;;;;;;19.15;79.34;100522.97;5000797;28;20498;-79
2021/09/11 04:51:16;;;;;;;10.17;9.27;;;;;;;19.16;79.28;100513.63;5013263;28;20400;-78
2021/09/11 04:53:41;;;;;;;10.30;8.87;;;;;;;19.20;79.39;100533.09;5014670;28;20756;-78
2021/09/11 04:56:07;;;;;;;9.47;8.67;;;;;;;19.22;79.06;100528.09;5008176;28;20404;-80
2021/09/11 04:58:33;;;;;;;9.07;8.35;;;;;;;19.22;79.05;100536.34;5000182;28;20404;-79
2021/09/11 05:00:58;;;;;;;10.43;8.50;;;;;;;19.22;79.07;100534.41;5007330;28;20726;-79
2021/09/11 05:03:23;;;;;;;8.80;7.90;;;;;;;19.24;79.19;100529.41;5012676;28;20416;-79
2021/09/11 05:05:48;;;;;;;9.93;9.03;;;;;;;19.22;78.86;100531.66;5012509;28;20392;-78
2021/09/11 05:08:17;;;;;;;9.47;8.20;;;;;;;19.18;79.10;100534.19;4996612;28;20866;-79
2021/09/11 05:10:43;;;;;;;7.90;7.30;;;;;;;19.22;78.75;100533.59;5021197;28;20802;-79
2021/09/11 05:13:08;;;;;;;7.40;6.83;;;;;;;19.22;78.68;100526.16;4995758;28;20437;-77
2021/09/11 05:15:33;;;;;;;8.65;7.82;;;;;;;19.24;78.59;100523.09;4996456;28;20434;-77
2021/09/11 05:17:59;;;;;;;8.70;7.90;;;;;;;19.22;78.68;100528.91;5007003;28;20433;-78
2021/09/11 05:20:24;;;;;;;12.07;8.43;;;;;;;19.23;78.77;100532.47;5007193;28;20475;-78
2021/09/11 05:22:49;;;;;;;10.23;9.23;;;;;;;19.22;78.82;100537.16;5003160;28;20415;-78
2021/09/11 05:25:14;;;;;;;10.13;9.33;;;;;;;19.22;78.61;100537.16;5010923;28;20408;-77
2021/09/11 05:27:40;;;;;;;10.13;8.37;;;;;;;19.22;79.00;100533.59;5006279;28;20470;-78
2021/09/11 05:30:07;;;;;;;8.57;7.80;;;;;;;19.24;78.84;100532.16;4999208;28;20892;-78
2021/09/11 05:32:32;;;;;;;9.00;8.30;;;;;;;19.25;78.65;100533.81;5005818;28;20415;-78
2021/09/11 05:34:58;;;;;;;8.90;8.10;;;;;;;19.20;78.69;100530.34;5003612;28;20487;-77
2021/09/11 05:37:23;;;;;;;8.93;8.10;;;;;;;19.17;78.81;100532.56;5008834;28;20472;-77
2021/09/11 05:39:48;;;;;;;9.37;8.47;;;;;;;19.15;78.79;100534.78;5012650;28;20994;-77
2021/09/11 05:42:13;;;;;;;8.00;7.23;;;;;;;19.17;78.88;100542.72;5020890;28;20412;-78
2021/09/11 05:44:39;;;;;;;9.15;8.25;;;;;;;19.14;79.08;100548.81;4993815;28;20390;-77
2021/09/11 05:47:04;;;;;;;8.93;8.30;;;;;;;19.10;79.27;100551.34;5008534;28;20883;-77
2021/09/11 05:49:30;;;;;;;8.00;7.50;;;;;;;19.12;79.31;100551.88;4993993;28;20897;-78
2021/09/11 05:51:55;;;;;;;8.70;7.90;;;;;;;19.15;79.32;100551.28;5000031;28;20817;-77
2021/09/11 05:54:20;;;;;;;8.83;7.13;;;;;;;19.18;79.43;100550.69;4995860;28;20423;-76
2021/09/11 05:56:46;;;;;;;8.77;8.07;;;;;;;19.26;78.88;100554.69;4997720;28;20420;-77
2021/09/11 05:59:11;;;;;;;9.07;8.27;;;;;;;19.22;79.07;100553.66;5007052;28;20435;-76
2021/09/11 06:01:39;;;;;;;8.50;7.75;;;;;;;19.25;79.06;100560.47;4997935;28;20926;-77
2021/09/11 06:04:04;;;;;;;8.32;7.70;;;;;;;19.29;78.72;100556.81;4998674;28;20412;-78
2021/09/11 06:06:30;;;;;;;8.37;7.57;;;;;;;19.25;78.83;100555.78;5000194;28;20398;-79
2021/09/11 06:08:56;;;;;;;7.63;6.93;;;;;;;19.24;78.86;100556.06;4993136;28;20402;-77
2021/09/11 06:11:21;;;;;;;8.60;7.72;;;;;;;19.23;78.89;100559.97;4991765;28;20417;-78
2021/09/11 06:13:46;;;;;;;7.73;7.23;;;;;;;19.27;78.97;100559.03;5008805;28;20416;-78
2021/09/11 06:16:12;;;;;;;8.90;7.83;;;;;;;19.30;78.76;100555.69;5011009;28;20405;-79
2021/09/11 06:18:37;;;;;;;7.75;7.20;;;;;;;19.30;78.65;100557.66;5013072;28;20555;-78
2021/09/11 06:21:03;;;;;;;7.43;6.83;;;;;;;19.30;78.79;100563.16;5003297;28;20413;-78
2021/09/11 06:23:28;;;;;;;7.77;7.07;;;;;;;19.31;78.86;100562.81;4997568;28;20512;-78
2021/09/11 06:25:54;;;;;;;7.93;7.23;;;;;;;19.36;78.28;100559.19;4998146;28;20469;-80
2021/09/11 06:28:21;;;;;;;7.47;6.77;;;;;;;19.40;78.32;100555.56;5009070;28;20400;-80
2021/09/11 06:30:47;;;;;;;7.18;6.47;;;;;;;19.44;78.33;100558.50;4997891;28;20397;-81
2021/09/11 06:33:12;;;;;;;6.90;6.40;;;;;;;19.45;78.07;100563.72;4996608;28;20746;-78
2021/09/11 06:35:38;;;;;;;7.10;6.40;;;;;;;19.47;78.09;100558.72;4932693;28;1739025;-77
2021/09/11 06:38:03;;;;;;;7.57;6.87;;;;;;;19.50;77.91;100562.81;4993689;28;20461;-78
2021/09/11 06:40:28;;;;;;;7.53;6.77;;;;;;;19.45;77.81;100563.72;5000728;28;20409;-81
2021/09/11 06:42:53;;;;;;;6.68;6.07;;;;;;;19.40;78.60;100563.78;5015534;28;20802;-81
2021/09/11 06:45:19;;;;;;;6.80;6.33;;;;;;;19.44;78.36;100562.09;4993016;28;20397;-80
2021/09/11 06:47:44;;;;;;;7.23;6.07;;;;;;;19.48;78.01;100562.31;4995612;28;20468;-80
2021/09/11 06:50:10;;;;;;;6.80;5.77;;;;;;;19.49;77.76;100564.75;5008753;28;20397;-78
2021/09/11 06:52:35;;;;;;;7.30;6.30;;;;;;;19.50;78.02;100571.06;4993127;28;20407;-78
2021/09/11 06:55:01;;;;;;;6.10;5.53;;;;;;;19.45;78.49;100576.66;4993845;28;20766;-78
2021/09/11 06:57:26;;;;;;;8.13;6.00;;;;;;;19.43;78.93;100574.19;4993309;28;20391;-78
2021/09/11 06:59:52;;;;;;;7.40;6.70;;;;;;;19.47;78.45;100572.47;4999612;28;20405;-78
2021/09/11 07:02:17;;;;;;;6.33;5.93;;;;;;;19.46;78.29;100575.53;5002527;28;20424;-80
2021/09/11 07:04:42;;;;;;;8.40;6.73;;;;;;;19.49;78.41;100574.94;5002024;28;20422;-78
2021/09/11 07:07:08;;;;;;;6.60;6.20;;;;;;;19.49;78.25;100570.25;5003093;28;20400;-78
2021/09/11 07:09:33;;;;;;;6.57;6.18;;;;;;;19.46;78.61;100576.31;4998741;28;20743;-78
2021/09/11 07:11:59;;;;;;;7.38;6.70;;;;;;;19.47;78.54;100574.41;5006191;28;20436;-78
2021/09/11 07:14:24;;;;;;;7.27;6.57;;;;;;;19.49;78.40;100575.75;4993102;28;20569;-78
2021/09/11 07:16:49;;;;;;;7.67;6.97;;;;;;;19.55;78.33;100570.97;5008940;28;20428;-79
2021/09/11 07:19:14;;;;;;;6.77;6.13;;;;;;;19.63;77.72;100564.78;4999648;28;20501;-79
2021/09/11 07:21:40;;;;;;;7.45;6.78;;;;;;;19.67;77.42;100565.81;5004680;28;20762;-79
2021/09/11 07:24:05;;;;;;;7.10;6.50;;;;;;;19.65;77.57;100574.38;5007722;28;20409;-79
2021/09/11 07:26:30;;;;;;;7.73;6.97;;;;;;;19.72;77.59;100573.97;4999767;28;20877;-80
2021/09/11 07:28:56;;;;;;;7.53;6.87;;;;;;;19.76;77.50;100577.72;5000623;28;20518;-79
2021/09/11 07:31:21;;;;;;;7.20;6.60;;;;;;;19.81;77.00;100579.59;5008243;28;20397;-79
2021/09/11 07:33:47;;;;;;;7.67;7.07;;;;;;;19.87;77.01;100578.38;4996127;28;20405;-79
2021/09/11 07:36:13;;;;;;;6.95;6.38;;;;;;;19.94;77.07;100589.78;5004699;28;20790;-79
2021/09/11 07:38:39;;;;;;;7.93;7.30;;;;;;;20.02;77.13;100584.38;4993027;28;20908;-79
2021/09/11 07:41:05;;;;;;;7.57;6.90;;;;;;;20.02;76.66;100591.84;4996948;28;20410;-79
2021/09/11 07:43:31;;;;;;;7.13;6.60;;;;;;;20.07;76.57;100589.00;5006423;28;20412;-79
2021/09/11 07:45:56;;;;;;;7.17;6.57;;;;;;;20.15;76.09;100593.78;5005993;28;20518;-79
2021/09/11 07:48:22;;;;;;;6.68;6.18;;;;;;;20.15;76.03;100594.59;5002287;28;20792;-79
2021/09/11 07:50:48;;;;;;;7.40;6.70;;;;;;;20.24;75.26;100594.72;4998050;28;20493;-79
2021/09/11 07:53:15;;;;;;;7.00;6.30;;;;;;;20.33;74.94;100590.16;4996963;28;20474;-79
2021/09/11 07:55:40;;;;;;;7.25;6.60;;;;;;;20.35;74.28;100598.09;5000761;28;20800;-79
2021/09/11 07:58:05;;;;;;;7.27;6.67;;;;;;;20.40;74.18;100609.81;5002946;28;20395;-79
2021/09/11 08:00:30;;;;;;;7.27;6.50;;;;;;;20.45;74.48;100600.66;5005038;28;20468;-79
2021/09/11 08:02:57;;;;;;;6.82;6.30;;;;;;;20.46;74.44;100611.34;4995304;28;20486;-79
2021/09/11 08:05:23;;;;;;;6.78;6.28;;;;;;;20.59;74.63;100604.19;5002389;28;20411;-79
2021/09/11 08:07:51;;;;;;;6.43;5.80;;;;;;;20.68;74.11;100602.38;5006414;28;20396;-80
2021/09/11 08:10:17;;;;;;;6.40;5.80;;;;;;;20.75;73.87;100618.47;4999738;28;20402;-79
2021/09/11 08:12:42;;;;;;;6.43;5.88;;;;;;;20.76;73.70;100615.41;4995400;28;20417;-79
2021/09/11 08:15:09;;;;;;;6.27;5.87;;;;;;;20.72;73.89;100614.38;4993948;28;20513;-79
2021/09/11 08:17:35;;;;;;;7.05;6.35;;;;;;;20.69;73.50;100615.81;5003314;28;20413;-79
2021/09/11 08:20:01;;;;;;;6.57;5.53;;;;;;;20.64;72.86;100613.19;4997345;28;20490;-79
2021/09/11 08:22:27;;;;;;;5.88;5.40;;;;;;;20.60;73.39;100616.84;4991936;28;20403;-79
2021/09/11 08:24:53;;;;;;;5.87;5.47;;;;;;;20.63;73.24;100619.81;5026404;28;20455;-79
2021/09/11 08:27:19;;;;;;;5.97;5.47;;;;;;;20.63;73.22;100610.72;5004493;28;20754;-79
2021/09/11 08:29:44;;;;;;;5.95;5.45;;;;;;;20.63;73.27;100618.97;4992475;28;20877;-78
2021/09/11 08:32:10;;;;;;;6.13;5.57;;;;;;;20.70;72.97;100620.22;4991978;28;20423;-78
2021/09/11 08:34:35;;;;;;;6.85;5.70;;;;;;;20.74;72.83;100627.84;5007665;28;20522;-77
2021/09/11 08:37:00;;;;;;;6.10;5.70;;;;;;;20.66;72.80;100626.63;4995714;28;20397;-78
2021/09/11 08:39:26;;;;;;;6.77;6.17;;;;;;;20.57;73.34;100629.28;5003944;28;20404;-79
2021/09/11 08:41:55;;;;;;;6.25;5.68;;;;;;;20.59;73.54;100628.97;4997522;28;20781;-78
2021/09/11 08:44:22;;;;;;;7.03;5.88;;;;;;;20.67;73.61;100633.78;4991723;28;20402;-78
2021/09/11 08:46:48;;;;;;;6.78;5.75;;;;;;;20.79;72.62;100636.81;4995381;28;20401;-79
2021/09/11 08:49:15;;;;;;;6.35;5.75;;;;;;;20.92;72.66;100635.16;4991394;28;20493;-78
2021/09/11 08:51:40;;;;;;;7.05;6.35;;;;;;;20.94;72.83;100630.97;5004523;28;20432;-79
2021/09/11 08:54:05;;;;;;;7.17;6.60;;;;;;;20.99;72.62;100632.78;4994743;28;20453;-79
2021/09/11 08:56:38;;;;;;;7.30;6.60;;;;;;;21.15;72.02;100636.84;4995555;28;20817;-77
2021/09/11 08:59:12;;;;;;;6.57;6.07;;;;;;;21.29;71.63;100634.06;5001697;28;20866;-77
2021/09/11 09:01:38;;;;;;;6.80;6.20;;;;;;;21.29;71.89;100639.56;5003531;28;20458;-77
2021/09/11 09:04:04;;;;;;;6.78;6.28;;;;;;;21.31;71.70;100631.78;4992464;28;20398;-78
2021/09/11 09:06:31;;;;;;;7.13;6.38;;;;;;;21.32;71.73;100634.25;4996933;28;20401;-79
2021/09/11 09:09:03;;;;;;;6.57;6.03;;;;;;;21.42;71.30;100630.44;5003188;28;20900;-77
2021/09/11 09:11:30;;;;;;;7.00;6.40;;;;;;;21.33;71.57;100624.88;5005668;28;20408;-77
2021/09/11 09:13:57;;;;;;;7.07;6.05;;;;;;;21.53;71.09;100629.06;4993693;28;20898;-78
2021/09/11 09:16:25;;;;;;;6.05;5.53;;;;;;;21.76;70.06;100633.44;5007664;28;20403;-78
2021/09/11 09:18:50;;;;;;;10.15;5.78;;;;;;;21.88;69.36;100630.09;4998362;28;20403;-78
2021/09/11 09:21:28;;;;;;;5.88;5.40;;;;;;;21.96;69.38;100629.38;4991505;28;20401;-78
2021/09/11 09:24:02;;;;;;;5.88;4.97;;;;;;;22.05;68.97;100638.50;4994639;28;20419;-77
2021/09/11 09:26:28;;;;;;;5.40;4.90;;;;;;;21.93;69.16;100628.03;5006374;28;20397;-78
2021/09/11 09:29:02;;;;;;;6.03;5.10;;;;;;;22.00;69.76;100627.59;5011553;28;20396;-80
2021/09/11 09:31:27;;;;;;;5.20;4.80;;;;;;;22.18;68.37;100626.56;4997035;28;20418;-79
2021/09/11 09:33:53;;;;;;;5.80;5.00;;;;;;;22.27;67.91;100641.22;4994341;28;20885;-79
2021/09/11 09:36:18;;;;;;;6.67;4.60;;;;;;;22.25;68.52;100635.22;5004018;28;20515;-79
2021/09/11 09:38:44;;;;;;;6.00;5.47;;;;;;;22.27;68.42;100630.16;5009657;28;20554;-80
2021/09/11 09:41:11;;;;;;;5.20;4.70;;;;;;;22.22;68.57;100633.91;5014431;28;20413;-78
2021/09/11 09:43:45;;;;;;;6.18;5.50;;;;;;;22.24;68.07;100623.34;4997943;28;20407;-78
2021/09/11 09:46:12;;;;;;;6.18;5.05;;;;;;;22.40;67.61;100622.91;5014022;28;20405;-78
2021/09/11 09:48:40;;;;;;;5.82;5.35;;;;;;;22.68;67.01;100627.09;5001962;28;20395;-78
2021/09/11 09:51:10;;;;;;;4.40;4.10;;;;;;;22.75;66.20;100622.72;4994870;28;20422;-78
2021/09/11 09:53:38;;;;;;;4.53;4.13;;;;;;;22.83;65.84;100615.56;5009847;28;20417;-78
2021/09/11 09:56:04;;;;;;;4.93;4.50;;;;;;;22.98;65.21;100617.91;5018563;28;20397;-79
2021/09/11 09:58:31;;;;;;;4.47;4.07;;;;;;;22.96;65.50;100622.09;5003041;28;20410;-78
2021/09/11 10:00:56;;;;;;;4.47;4.13;;;;;;;22.94;65.24;100619.66;4996397;28;20446;-78
2021/09/11 10:03:22;;;;;;;3.78;3.53;;;;;;;23.19;64.85;100613.34;4997454;28;20447;-78
2021/09/11 10:05:50;;;;;;;4.03;3.77;;;;;;;24.31;61.71;100610.38;5000377;28;20775;-78
2021/09/11 10:08:17;;;;;;;3.53;3.33;;;;;;;24.69;60.18;100613.13;5003489;28;20401;-78
2021/09/11 10:10:47;;;;;;;3.83;3.53;;;;;;;25.97;56.39;100616.00;5007306;28;20412;-78
2021/09/11 10:13:15;;;;;;;3.40;3.20;;;;;;;27.07;52.80;100609.31;5001317;28;20765;-79
2021/09/11 10:15:55;;;;;;;3.57;3.27;;;;;;;28.35;48.43;100620.09;4998859;28;20450;-79
2021/09/11 10:18:29;;;;;;;3.45;3.00;;;;;;;29.10;47.18;100611.50;4993886;28;20403;-78
2021/09/11 10:21:40;;;;;;;3.83;3.53;;;;;;;29.89;44.91;100623.13;4995072;28;20409;-77
2021/09/11 10:24:15;;;;;;;3.93;3.63;;;;;;;28.28;47.62;100617.94;4996134;28;20415;-78
2021/09/11 10:26:52;;;;;;;5.85;3.40;;;;;;;27.54;50.82;100609.50;5009886;28;20429;-78
2021/09/11 10:29:35;;;;;;;3.80;3.60;;;;;;;28.56;47.99;100605.84;5001293;28;20958;-76
2021/09/11 10:32:11;;;;;;;3.40;3.10;;;;;;;27.23;50.03;100604.63;5003461;28;20413;-78
2021/09/11 10:34:46;;;;;;;3.80;3.40;;;;;;;27.72;49.44;100600.50;4998562;28;20424;-77
2021/09/11 10:37:12;;;;;;;3.60;3.30;;;;;;;27.65;48.68;100599.50;5002253;28;20405;-76
2021/09/11 10:39:37;;;;;;;3.85;3.55;;;;;;;27.78;49.98;100599.06;5001078;28;20904;-79
2021/09/11 10:42:04;;;;;;;3.47;3.27;;;;;;;28.42;48.06;100591.59;5005392;28;20421;-77
2021/09/11 10:44:30;;;;;;;3.33;3.10;;;;;;;29.48;45.41;100589.19;5002676;28;20885;-79
2021/09/11 10:46:56;;;;;;;3.55;3.28;;;;;;;30.07;43.04;100585.94;5002572;28;20424;-78
2021/09/11 10:49:27;;;;;;;3.60;3.40;;;;;;;30.91;41.42;100590.47;5013287;28;20815;-79
2021/09/11 10:52:05;;;;;;;3.97;3.60;;;;;;;30.93;41.64;100590.91;5001594;28;20907;-80
2021/09/11 10:54:39;;;;;;;3.53;3.22;;;;;;;30.34;43.37;100592.38;4992876;28;20751;-81
2021/09/11 10:57:05;;;;;;;3.00;2.80;;;;;;;31.17;42.16;100580.09;4992824;28;20406;-81
2021/09/11 10:59:47;;;;;;;2.78;2.67;;;;;;;31.88;39.78;100578.91;4995450;28;20904;-78
2021/09/11 11:02:23;;;;;;;3.28;2.60;;;;;;;32.13;38.43;100569.94;5005376;28;20465;-81
2021/09/11 11:04:48;;;;;;;2.83;2.65;;;;;;;32.47;37.48;100565.00;5006119;28;20415;-78
2021/09/11 11:07:18;;;;;;;3.10;2.90;;;;;;;30.28;41.06;100568.72;5018633;28;20409;-82
2021/09/11 11:09:49;;;;;;;3.00;2.80;;;;;;;29.17;44.28;100569.81;4996519;28;20881;-81
2021/09/11 11:12:20;;;;;;;3.50;3.35;;;;;;;28.47;46.36;100578.16;4992923;28;20438;-81
2021/09/11 11:14:45;;;;;;;4.20;3.00;;;;;;;28.29;47.63;100566.56;4991506;28;20423;-79
2021/09/11 11:17:15;;;;;;;3.77;3.37;;;;;;;29.16;45.08;100560.63;5006401;28;20411;-81
2021/09/11 11:19:44;;;;;;;3.20;2.92;;;;;;;28.40;46.73;100561.25;5016416;28;20593;-81
2021/09/11 11:22:12;;;;;;;3.65;3.15;;;;;;;27.29;50.15;100567.03;5028658;28;20408;-81